sensor_id;sensor_type;location;lat;lon;timestamp;pressure;altitude;pressure_sealevel;temperature;humidity
38466;BME280;24244;51.950;5.902;2022-11-20T00:02:11;101307.91;;;0.66;71.44
38466;BME280;24244;51.950;5.902;2022-11-20T00:04:38;101312.44;;;0.64;70.82
38466;BME280;24244;51.950;5.902;2022-11-20T00:07:11;101313.56;;;0.60;71.11
38466;BME280;24244;51.950;5.902;2022-11-20T00:09:38;101306.06;;;0.55;71.38
38466;BME280;24244;51.950;5.902;2022-11-20T00:12:06;101293.94;;;0.54;71.23
38466;BME280;24244;51.950;5.902;2022-11-20T00:14:36;101290.47;;;0.54;71.48
38466;BME280;24244;51.950;5.902;2022-11-20T00:17:03;101286.53;;;0.48;71.50
38466;BME280;24244;51.950;5.902;2022-11-20T00:19:34;101296.34;;;0.45;71.11
38466;BME280;24244;51.950;5.902;2022-11-20T00:22:01;101279.13;;;0.42;71.23
38466;BME280;24244;51.950;5.902;2022-11-20T00:24:33;101282.03;;;0.37;71.30
38466;BME280;24244;51.950;5.902;2022-11-20T00:27:08;101274.41;;;0.34;71.58
38466;BME280;24244;51.950;5.902;2022-11-20T00:29:39;101271.41;;;0.28;71.56
38466;BME280;24244;51.950;5.902;2022-11-20T00:32:09;101273.38;;;0.24;71.77
38466;BME280;24244;51.950;5.902;2022-11-20T00:34:37;101276.22;;;0.21;71.67
38466;BME280;24244;51.950;5.902;2022-11-20T00:37:04;101274.56;;;0.20;71.91
38466;BME280;24244;51.950;5.902;2022-11-20T00:39:33;101280.63;;;0.21;71.39
38466;BME280;24244;51.950;5.902;2022-11-20T00:42:09;101279.53;;;0.23;71.91
38466;BME280;24244;51.950;5.902;2022-11-20T00:44:37;101282.16;;;0.23;71.99
38466;BME280;24244;51.950;5.902;2022-11-20T00:47:04;101288.31;;;0.22;71.85
38466;BME280;24244;51.950;5.902;2022-11-20T00:49:32;101278.94;;;0.20;71.39
38466;BME280;24244;51.950;5.902;2022-11-20T00:51:59;101274.75;;;0.17;71.88
38466;BME280;24244;51.950;5.902;2022-11-20T00:54:26;101273.19;;;0.15;71.56
38466;BME280;24244;51.950;5.902;2022-11-20T00:56:54;101267.53;;;0.08;71.52
38466;BME280;24244;51.950;5.902;2022-11-20T00:59:21;101271.13;;;0.07;71.99
38466;BME280;24244;51.950;5.902;2022-11-20T01:01:49;101274.69;;;0.06;71.40
38466;BME280;24244;51.950;5.902;2022-11-20T01:04:17;101283.44;;;0.05;72.17
38466;BME280;24244;51.950;5.902;2022-11-20T01:06:45;101277.16;;;0.08;72.23
38466;BME280;24244;51.950;5.902;2022-11-20T01:09:14;101277.06;;;0.09;71.85
38466;BME280;24244;51.950;5.902;2022-11-20T01:11:42;101264.22;;;0.06;71.71
38466;BME280;24244;51.950;5.902;2022-11-20T01:14:13;101270.81;;;-0.01;71.83
38466;BME280;24244;51.950;5.902;2022-11-20T01:16:42;101265.88;;;-0.06;72.07
38466;BME280;24244;51.950;5.902;2022-11-20T01:19:11;101266.81;;;-0.07;72.07
38466;BME280;24244;51.950;5.902;2022-11-20T01:21:51;101265.28;;;-0.09;71.39
38466;BME280;24244;51.950;5.902;2022-11-20T01:24:20;101265.28;;;-0.09;72.13
38466;BME280;24244;51.950;5.902;2022-11-20T01:26:50;101264.44;;;-0.10;71.93
38466;BME280;24244;51.950;5.902;2022-11-20T01:29:21;101254.00;;;-0.10;71.38
38466;BME280;24244;51.950;5.902;2022-11-20T01:31:48;101254.19;;;-0.13;71.94
38466;BME280;24244;51.950;5.902;2022-11-20T01:34:19;101251.56;;;-0.13;71.70
38466;BME280;24244;51.950;5.902;2022-11-20T01:36:46;101251.66;;;-0.14;71.77
38466;BME280;24244;51.950;5.902;2022-11-20T01:39:16;101241.34;;;-0.16;71.75
38466;BME280;24244;51.950;5.902;2022-11-20T01:41:43;101242.38;;;-0.18;72.29
38466;BME280;24244;51.950;5.902;2022-11-20T01:44:53;101249.28;;;-0.17;72.06
38466;BME280;24244;51.950;5.902;2022-11-20T01:47:25;101243.03;;;-0.15;72.06
38466;BME280;24244;51.950;5.902;2022-11-20T01:49:56;101241.03;;;-0.11;71.96
38466;BME280;24244;51.950;5.902;2022-11-20T01:52:28;101235.59;;;-0.08;71.87
38466;BME280;24244;51.950;5.902;2022-11-20T01:55:01;101229.22;;;-0.04;72.44
38466;BME280;24244;51.950;5.902;2022-11-20T01:57:32;101237.97;;;-0.05;72.10
38466;BME280;24244;51.950;5.902;2022-11-20T02:00:05;101241.53;;;-0.06;72.01
38466;BME280;24244;51.950;5.902;2022-11-20T02:06:18;101240.41;;;-0.02;71.82
38466;BME280;24244;51.950;5.902;2022-11-20T02:08:46;101248.22;;;-0.02;71.59
38466;BME280;24244;51.950;5.902;2022-11-20T02:11:12;101249.19;;;-0.03;71.88
38466;BME280;24244;51.950;5.902;2022-11-20T02:13:39;101242.28;;;-0.04;72.15
38466;BME280;24244;51.950;5.902;2022-11-20T02:16:21;101249.28;;;-0.05;72.22
38466;BME280;24244;51.950;5.902;2022-11-20T02:18:49;101242.47;;;-0.07;71.91
38466;BME280;24244;51.950;5.902;2022-11-20T02:21:28;101245.50;;;-0.13;71.80
38466;BME280;24244;51.950;5.902;2022-11-20T02:24:10;101244.25;;;-0.20;72.39
38466;BME280;24244;51.950;5.902;2022-11-20T02:26:46;101249.47;;;-0.20;72.23
38466;BME280;24244;51.950;5.902;2022-11-20T02:29:17;101231.44;;;-0.23;72.15
38466;BME280;24244;51.950;5.902;2022-11-20T02:31:46;101231.72;;;-0.28;72.23
38466;BME280;24244;51.950;5.902;2022-11-20T02:34:14;101232.88;;;-0.32;72.95
38466;BME280;24244;51.950;5.902;2022-11-20T02:36:42;101235.69;;;-0.35;72.33
38466;BME280;24244;51.950;5.902;2022-11-20T02:39:11;101237.47;;;-0.35;72.50
38466;BME280;24244;51.950;5.902;2022-11-20T02:41:39;101240.06;;;-0.35;72.53
38466;BME280;24244;51.950;5.902;2022-11-20T02:44:08;101240.81;;;-0.33;72.11
38466;BME280;24244;51.950;5.902;2022-11-20T02:46:35;101235.59;;;-0.33;72.80
38466;BME280;24244;51.950;5.902;2022-11-20T02:49:02;101225.16;;;-0.33;72.34
38466;BME280;24244;51.950;5.902;2022-11-20T02:51:32;101231.31;;;-0.34;72.06
38466;BME280;24244;51.950;5.902;2022-11-20T02:54:02;101232.06;;;-0.32;72.38
38466;BME280;24244;51.950;5.902;2022-11-20T02:56:33;101222.53;;;-0.33;72.16
38466;BME280;24244;51.950;5.902;2022-11-20T02:59:02;101222.03;;;-0.38;72.52
38466;BME280;24244;51.950;5.902;2022-11-20T03:01:29;101223.38;;;-0.46;72.42
38466;BME280;24244;51.950;5.902;2022-11-20T03:04:00;101221.81;;;-0.48;73.11
38466;BME280;24244;51.950;5.902;2022-11-20T03:06:28;101224.50;;;-0.50;72.87
38466;BME280;24244;51.950;5.902;2022-11-20T03:08:55;101211.47;;;-0.50;72.46
38466;BME280;24244;51.950;5.902;2022-11-20T03:11:23;101217.66;;;-0.51;72.24
38466;BME280;24244;51.950;5.902;2022-11-20T03:13:52;101218.59;;;-0.52;72.37
38466;BME280;24244;51.950;5.902;2022-11-20T03:16:21;101208.34;;;-0.55;72.74
38466;BME280;24244;51.950;5.902;2022-11-20T03:18:50;101208.34;;;-0.55;72.13
38466;BME280;24244;51.950;5.902;2022-11-20T03:21:27;101206.78;;;-0.57;72.53
38466;BME280;24244;51.950;5.902;2022-11-20T03:23:59;101206.13;;;-0.61;72.35
38466;BME280;24244;51.950;5.902;2022-11-20T03:26:28;101207.06;;;-0.62;72.85
38466;BME280;24244;51.950;5.902;2022-11-20T03:28:58;101201.03;;;-0.62;72.34
38466;BME280;24244;51.950;5.902;2022-11-20T03:31:28;101198.72;;;-0.67;72.48
38466;BME280;24244;51.950;5.902;2022-11-20T03:33:56;101196.13;;;-0.67;72.34
38466;BME280;24244;51.950;5.902;2022-11-20T03:36:29;101200.41;;;-0.66;72.99
38466;BME280;24244;51.950;5.902;2022-11-20T03:38:56;101195.19;;;-0.66;72.86
38466;BME280;24244;51.950;5.902;2022-11-20T03:41:26;101201.25;;;-0.65;72.77
38466;BME280;24244;51.950;5.902;2022-11-20T03:43:58;101206.13;;;-0.61;72.88
38466;BME280;24244;51.950;5.902;2022-11-20T03:46:25;101209.50;;;-0.59;72.30
38466;BME280;24244;51.950;5.902;2022-11-20T03:48:53;101206.88;;;-0.59;72.48
38466;BME280;24244;51.950;5.902;2022-11-20T03:51:21;101204.56;;;-0.63;72.67
38466;BME280;24244;51.950;5.902;2022-11-20T03:53:50;101192.56;;;-0.66;72.50
38466;BME280;24244;51.950;5.902;2022-11-20T03:56:20;101189.22;;;-0.68;71.98
38466;BME280;24244;51.950;5.902;2022-11-20T03:58:48;101187.53;;;-0.69;72.80
38466;BME280;24244;51.950;5.902;2022-11-20T04:01:18;101191.22;;;-0.71;72.36
38466;BME280;24244;51.950;5.902;2022-11-20T04:03:45;101188.16;;;-0.78;72.86
38466;BME280;24244;51.950;5.902;2022-11-20T04:06:14;101181.38;;;-0.81;72.80
38466;BME280;24244;51.950;5.902;2022-11-20T04:08:41;101194.44;;;-0.81;72.57
38466;BME280;24244;51.950;5.902;2022-11-20T04:11:14;101187.44;;;-0.80;72.50
38466;BME280;24244;51.950;5.902;2022-11-20T04:13:42;101187.34;;;-0.78;72.43
38466;BME280;24244;51.950;5.902;2022-11-20T04:16:09;101185.53;;;-0.78;72.77
38466;BME280;24244;51.950;5.902;2022-11-20T04:18:37;101182.13;;;-0.78;72.37
38466;BME280;24244;51.950;5.902;2022-11-20T04:21:05;101179.63;;;-0.80;72.53
38466;BME280;24244;51.950;5.902;2022-11-20T04:23:32;101180.56;;;-0.81;72.42
38466;BME280;24244;51.950;5.902;2022-11-20T04:26:05;101182.41;;;-0.83;73.02
38466;BME280;24244;51.950;5.902;2022-11-20T04:28:32;101179.81;;;-0.83;72.97
38466;BME280;24244;51.950;5.902;2022-11-20T04:31:07;101181.81;;;-0.87;72.70
38466;BME280;24244;51.950;5.902;2022-11-20T04:33:34;101183.03;;;-0.92;73.08
38466;BME280;24244;51.950;5.902;2022-11-20T04:36:04;101177.09;;;-0.94;72.56
38466;BME280;24244;51.950;5.902;2022-11-20T04:38:33;101178.78;;;-0.93;72.66
38466;BME280;24244;51.950;5.902;2022-11-20T04:41:05;101179.72;;;-0.94;72.61
38466;BME280;24244;51.950;5.902;2022-11-20T04:43:32;101178.88;;;-0.95;72.87
38466;BME280;24244;51.950;5.902;2022-11-20T04:46:00;101170.19;;;-0.95;72.84
38466;BME280;24244;51.950;5.902;2022-11-20T04:48:34;101176.34;;;-0.96;72.64
38466;BME280;24244;51.950;5.902;2022-11-20T04:51:04;101176.34;;;-0.96;72.68
38466;BME280;24244;51.950;5.902;2022-11-20T04:53:31;101177.28;;;-0.97;72.59
38466;BME280;24244;51.950;5.902;2022-11-20T04:56:02;101177.50;;;-1.00;73.01
38466;BME280;24244;51.950;5.902;2022-11-20T04:58:30;101168.94;;;-1.02;72.56
38466;BME280;24244;51.950;5.902;2022-11-20T05:01:01;101169.97;;;-1.05;72.74
38466;BME280;24244;51.950;5.902;2022-11-20T05:03:29;101154.81;;;-1.12;72.50
38466;BME280;24244;51.950;5.902;2022-11-20T05:05:56;101164.63;;;-1.16;72.57
38466;BME280;24244;51.950;5.902;2022-11-20T05:08:24;101165.56;;;-1.17;72.93
38466;BME280;24244;51.950;5.902;2022-11-20T05:10:51;101154.31;;;-1.17;72.68
38466;BME280;24244;51.950;5.902;2022-11-20T05:13:18;101151.59;;;-1.16;73.07
38466;BME280;24244;51.950;5.902;2022-11-20T05:15:44;101146.47;;;-1.17;73.14
38466;BME280;24244;51.950;5.902;2022-11-20T05:18:11;101144.91;;;-1.20;72.38
38466;BME280;24244;51.950;5.902;2022-11-20T05:20:38;101143.97;;;-1.19;72.98
38466;BME280;24244;51.950;5.902;2022-11-20T05:23:05;101145.66;;;-1.18;72.91
38466;BME280;24244;51.950;5.902;2022-11-20T05:25:33;101138.13;;;-1.23;72.66
38466;BME280;24244;51.950;5.902;2022-11-20T05:28:00;101133.09;;;-1.26;72.89
38466;BME280;24244;51.950;5.902;2022-11-20T05:30:28;101126.22;;;-1.27;72.66
38466;BME280;24244;51.950;5.902;2022-11-20T05:32:55;101132.50;;;-1.29;72.60
38466;BME280;24244;51.950;5.902;2022-11-20T05:35:21;101139.25;;;-1.27;72.47
38466;BME280;24244;51.950;5.902;2022-11-20T05:37:48;101150.53;;;-1.26;73.08
38466;BME280;24244;51.950;5.902;2022-11-20T05:40:15;101142.59;;;-1.25;73.08
38466;BME280;24244;51.950;5.902;2022-11-20T05:42:43;101128.63;;;-1.24;72.77
38466;BME280;24244;51.950;5.902;2022-11-20T05:45:10;101128.94;;;-1.28;72.40
38466;BME280;24244;51.950;5.902;2022-11-20T05:47:37;101127.47;;;-1.32;72.64
38466;BME280;24244;51.950;5.902;2022-11-20T05:50:07;101130.28;;;-1.35;72.63
38466;BME280;24244;51.950;5.902;2022-11-20T05:52:34;101127.78;;;-1.37;72.73
38466;BME280;24244;51.950;5.902;2022-11-20T05:55:00;101126.94;;;-1.37;72.72
38466;BME280;24244;51.950;5.902;2022-11-20T05:57:27;101130.47;;;-1.38;73.16
38466;BME280;24244;51.950;5.902;2022-11-20T05:59:56;101131.41;;;-1.39;73.10
38466;BME280;24244;51.950;5.902;2022-11-20T06:02:22;101133.41;;;-1.43;73.00
38466;BME280;24244;51.950;5.902;2022-11-20T06:04:50;101133.50;;;-1.44;72.98
38466;BME280;24244;51.950;5.902;2022-11-20T06:07:17;101130.78;;;-1.43;72.66
38466;BME280;24244;51.950;5.902;2022-11-20T06:09:46;101142.06;;;-1.42;72.91
38466;BME280;24244;51.950;5.902;2022-11-20T06:12:14;101137.66;;;-1.42;72.71
38466;BME280;24244;51.950;5.902;2022-11-20T06:14:41;101146.03;;;-1.37;72.57
38466;BME280;24244;51.950;5.902;2022-11-20T06:17:09;101149.34;;;-1.35;72.60
38466;BME280;24244;51.950;5.902;2022-11-20T06:19:35;101168.44;;;-1.34;72.73
38466;BME280;24244;51.950;5.902;2022-11-20T06:22:02;101160.63;;;-1.34;72.59
38466;BME280;24244;51.950;5.902;2022-11-20T06:24:29;101162.19;;;-1.32;72.41
38466;BME280;24244;51.950;5.902;2022-11-20T06:26:57;101164.63;;;-1.29;72.65
38466;BME280;24244;51.950;5.902;2022-11-20T06:29:24;101164.81;;;-1.32;72.73
38466;BME280;24244;51.950;5.902;2022-11-20T06:31:55;101164.38;;;-1.38;72.48
38466;BME280;24244;51.950;5.902;2022-11-20T06:34:24;101158.50;;;-1.42;72.90
38466;BME280;24244;51.950;5.902;2022-11-20T06:36:52;101168.22;;;-1.44;73.20
38466;BME280;24244;51.950;5.902;2022-11-20T06:39:19;101162.25;;;-1.46;72.81
38466;BME280;24244;51.950;5.902;2022-11-20T06:41:48;101169.25;;;-1.46;73.05
38466;BME280;24244;51.950;5.902;2022-11-20T06:44:19;101173.44;;;-1.44;73.21
38466;BME280;24244;51.950;5.902;2022-11-20T06:46:46;101173.44;;;-1.44;73.19
38466;BME280;24244;51.950;5.902;2022-11-20T06:49:13;101179.38;;;-1.42;72.51
38466;BME280;24244;51.950;5.902;2022-11-20T06:51:41;101181.88;;;-1.40;72.84
38466;BME280;24244;51.950;5.902;2022-11-20T06:54:08;101179.28;;;-1.40;73.37
38466;BME280;24244;51.950;5.902;2022-11-20T06:56:36;101178.34;;;-1.39;73.21
38466;BME280;24244;51.950;5.902;2022-11-20T06:59:04;101178.44;;;-1.41;72.99
38466;BME280;24244;51.950;5.902;2022-11-20T07:01:31;101177.72;;;-1.43;72.82
38466;BME280;24244;51.950;5.902;2022-11-20T07:03:58;101182.19;;;-1.45;73.01
38466;BME280;24244;51.950;5.902;2022-11-20T07:06:25;101172.50;;;-1.43;72.80
38466;BME280;24244;51.950;5.902;2022-11-20T07:08:53;101180.31;;;-1.43;72.96
38466;BME280;24244;51.950;5.902;2022-11-20T07:11:20;101173.53;;;-1.45;73.21
38466;BME280;24244;51.950;5.902;2022-11-20T07:13:47;101177.91;;;-1.46;72.99
38466;BME280;24244;51.950;5.902;2022-11-20T07:16:14;101178.66;;;-1.44;73.21
38466;BME280;24244;51.950;5.902;2022-11-20T07:18:40;101175.28;;;-1.46;73.36
38466;BME280;24244;51.950;5.902;2022-11-20T07:21:16;101180.50;;;-1.46;72.96
38466;BME280;24244;51.950;5.902;2022-11-20T07:23:45;101169.25;;;-1.46;73.62
38466;BME280;24244;51.950;5.902;2022-11-20T07:26:13;101163.09;;;-1.45;73.35
38466;BME280;24244;51.950;5.902;2022-11-20T07:28:43;101161.63;;;-1.49;73.39
38466;BME280;24244;51.950;5.902;2022-11-20T07:31:10;101158.19;;;-1.50;73.02
38466;BME280;24244;51.950;5.902;2022-11-20T07:33:45;101154.63;;;-1.49;73.13
38466;BME280;24244;51.950;5.902;2022-11-20T07:36:14;101150.16;;;-1.47;73.24
38466;BME280;24244;51.950;5.902;2022-11-20T07:38:41;101143.91;;;-1.44;73.65
38466;BME280;24244;51.950;5.902;2022-11-20T07:41:07;101149.75;;;-1.41;73.26
38466;BME280;24244;51.950;5.902;2022-11-20T07:43:36;101136.44;;;-1.36;73.32
38466;BME280;24244;51.950;5.902;2022-11-20T07:46:06;101130.38;;;-1.37;73.01
38466;BME280;24244;51.950;5.902;2022-11-20T07:48:34;101124.13;;;-1.34;73.66
38466;BME280;24244;51.950;5.902;2022-11-20T07:51:01;101125.69;;;-1.32;73.25
38466;BME280;24244;51.950;5.902;2022-11-20T07:53:29;101129.56;;;-1.25;73.22
38466;BME280;24244;51.950;5.902;2022-11-20T07:55:59;101138.75;;;-1.19;73.67
38466;BME280;24244;51.950;5.902;2022-11-20T07:58:28;101136.78;;;-1.15;73.73
38466;BME280;24244;51.950;5.902;2022-11-20T08:01:02;101139.00;;;-1.09;73.68
38466;BME280;24244;51.950;5.902;2022-11-20T08:03:30;101133.69;;;-1.08;72.86
38466;BME280;24244;51.950;5.902;2022-11-20T08:05:58;101142.13;;;-1.04;73.92
38466;BME280;24244;51.950;5.902;2022-11-20T08:08:28;101140.16;;;-1.01;73.16
38466;BME280;24244;51.950;5.902;2022-11-20T08:10:59;101142.53;;;-0.98;73.37
38466;BME280;24244;51.950;5.902;2022-11-20T08:13:44;101148.41;;;-0.94;74.08
38466;BME280;24244;51.950;5.902;2022-11-20T08:16:32;101152.47;;;-0.90;74.12
38466;BME280;24244;51.950;5.902;2022-11-20T08:19:02;101153.81;;;-0.85;73.89
38466;BME280;24244;51.950;5.902;2022-11-20T08:21:31;101147.47;;;-0.81;74.17
38466;BME280;24244;51.950;5.902;2022-11-20T08:24:05;101151.53;;;-0.76;73.83
38466;BME280;24244;51.950;5.902;2022-11-20T08:26:32;101147.97;;;-0.75;73.99
38466;BME280;24244;51.950;5.902;2022-11-20T08:29:00;101158.31;;;-0.74;74.19
38466;BME280;24244;51.950;5.902;2022-11-20T08:31:27;101153.09;;;-0.74;74.12
38466;BME280;24244;51.950;5.902;2022-11-20T08:33:55;101140.78;;;-0.72;74.39
38466;BME280;24244;51.950;5.902;2022-11-20T08:36:23;101143.09;;;-0.67;74.61
38466;BME280;24244;51.950;5.902;2022-11-20T08:38:50;101134.91;;;-0.63;74.32
38466;BME280;24244;51.950;5.902;2022-11-20T08:41:18;101136.31;;;-0.57;75.12
38466;BME280;24244;51.950;5.902;2022-11-20T08:43:56;101133.34;;;-0.53;74.59
38466;BME280;24244;51.950;5.902;2022-11-20T08:46:25;101139.00;;;-0.46;74.47
38466;BME280;24244;51.950;5.902;2022-11-20T08:48:53;101143.78;;;-0.40;74.88
38466;BME280;24244;51.950;5.902;2022-11-20T08:51:21;101139.06;;;-0.35;74.77
38466;BME280;24244;51.950;5.902;2022-11-20T08:53:48;101126.66;;;-0.31;74.32
38466;BME280;24244;51.950;5.902;2022-11-20T08:56:15;101124.53;;;-0.26;74.83
38466;BME280;24244;51.950;5.902;2022-11-20T08:58:44;101119.81;;;-0.21;74.41
38466;BME280;24244;51.950;5.902;2022-11-20T09:01:31;101123.66;;;-0.14;74.43
38466;BME280;24244;51.950;5.902;2022-11-20T09:03:58;101124.09;;;-0.08;74.24
38466;BME280;24244;51.950;5.902;2022-11-20T09:06:29;101124.59;;;-0.03;74.18
38466;BME280;24244;51.950;5.902;2022-11-20T09:08:56;101119.84;;;0.03;74.43
38466;BME280;24244;51.950;5.902;2022-11-20T09:11:30;101114.31;;;0.07;74.64
38466;BME280;24244;51.950;5.902;2022-11-20T09:13:59;101107.72;;;0.14;74.37
38466;BME280;24244;51.950;5.902;2022-11-20T09:16:27;101101.31;;;0.18;74.52
38466;BME280;24244;51.950;5.902;2022-11-20T09:18:54;101092.19;;;0.24;74.42
38466;BME280;24244;51.950;5.902;2022-11-20T09:21:43;101097.88;;;0.29;74.58
38466;BME280;24244;51.950;5.902;2022-11-20T09:24:11;101090.69;;;0.32;74.50
38466;BME280;24244;51.950;5.902;2022-11-20T09:26:38;101086.78;;;0.38;73.91
38466;BME280;24244;51.950;5.902;2022-11-20T09:29:05;101090.84;;;0.42;74.74
38466;BME280;24244;51.950;5.902;2022-11-20T09:31:33;101090.59;;;0.45;74.86
38466;BME280;24244;51.950;5.902;2022-11-20T09:34:00;101094.69;;;0.49;74.45
38466;BME280;24244;51.950;5.902;2022-11-20T09:36:29;101088.97;;;0.55;74.59
38466;BME280;24244;51.950;5.902;2022-11-20T09:38:58;101080.06;;;0.58;74.85
38466;BME280;24244;51.950;5.902;2022-11-20T09:41:41;101080.56;;;0.63;74.97
38466;BME280;24244;51.950;5.902;2022-11-20T09:44:27;101092.56;;;0.65;74.96
38466;BME280;24244;51.950;5.902;2022-11-20T09:47:02;101086.06;;;0.71;75.12
38466;BME280;24244;51.950;5.902;2022-11-20T09:49:38;101088.31;;;0.75;74.87
38466;BME280;24244;51.950;5.902;2022-11-20T09:52:21;101081.06;;;0.79;75.10
38466;BME280;24244;51.950;5.902;2022-11-20T09:54:50;101083.47;;;0.82;74.60
38466;BME280;24244;51.950;5.902;2022-11-20T09:57:18;101084.19;;;0.84;74.52
38466;BME280;24244;51.950;5.902;2022-11-20T09:59:49;101083.09;;;0.87;74.63
38466;BME280;24244;51.950;5.902;2022-11-20T10:02:27;101080.16;;;0.91;74.91
38466;BME280;24244;51.950;5.902;2022-11-20T10:05:00;101072.31;;;0.91;75.16
38466;BME280;24244;51.950;5.902;2022-11-20T10:07:34;101066.72;;;0.96;75.35
38466;BME280;24244;51.950;5.902;2022-11-20T10:10:14;101058.50;;;1.00;75.42
38466;BME280;24244;51.950;5.902;2022-11-20T10:13:00;101064.09;;;1.07;75.76
38466;BME280;24244;51.950;5.902;2022-11-20T10:15:34;101054.13;;;1.12;75.70
38466;BME280;24244;51.950;5.902;2022-11-20T10:18:18;101049.38;;;1.17;75.70
38466;BME280;24244;51.950;5.902;2022-11-20T10:20:51;101051.63;;;1.22;75.19
38466;BME280;24244;51.950;5.902;2022-11-20T10:23:48;101042.47;;;1.27;74.97
38466;BME280;24244;51.950;5.902;2022-11-20T10:26:26;101032.56;;;1.31;74.88
38466;BME280;24244;51.950;5.902;2022-11-20T10:29:09;101025.34;;;1.34;75.10
38466;BME280;24244;51.950;5.902;2022-11-20T10:31:37;101019.72;;;1.39;75.70
38466;BME280;24244;51.950;5.902;2022-11-20T10:34:12;101014.81;;;1.45;75.46
38466;BME280;24244;51.950;5.902;2022-11-20T10:36:54;101015.28;;;1.50;75.63
38466;BME280;24244;51.950;5.902;2022-11-20T10:39:29;101027.09;;;1.56;75.59
38466;BME280;24244;51.950;5.902;2022-11-20T10:42:00;101025.03;;;1.60;75.08
38466;BME280;24244;51.950;5.902;2022-11-20T10:44:28;101023.03;;;1.63;75.05
38466;BME280;24244;51.950;5.902;2022-11-20T10:47:19;101016.34;;;1.70;75.65
38466;BME280;24244;51.950;5.902;2022-11-20T10:49:51;101011.56;;;1.75;75.60
38466;BME280;24244;51.950;5.902;2022-11-20T10:52:23;101015.47;;;1.81;75.69
38466;BME280;24244;51.950;5.902;2022-11-20T10:54:58;100996.75;;;1.85;75.31
38466;BME280;24244;51.950;5.902;2022-11-20T10:57:41;100991.03;;;1.91;75.07
38466;BME280;24244;51.950;5.902;2022-11-20T11:00:14;100984.78;;;1.92;75.58
38466;BME280;24244;51.950;5.902;2022-11-20T11:02:46;100987.91;;;1.98;75.92
38466;BME280;24244;51.950;5.902;2022-11-20T11:05:22;100979.66;;;2.02;75.39
38466;BME280;24244;51.950;5.902;2022-11-20T11:07:53;100976.91;;;2.04;75.90
38466;BME280;24244;51.950;5.902;2022-11-20T11:10:24;100971.53;;;2.05;75.33
38466;BME280;24244;51.950;5.902;2022-11-20T11:12:53;100965.91;;;2.10;75.86
38466;BME280;24244;51.950;5.902;2022-11-20T11:15:28;100969.94;;;2.14;75.73
38466;BME280;24244;51.950;5.902;2022-11-20T11:17:56;100969.09;;;2.13;75.82
38466;BME280;24244;51.950;5.902;2022-11-20T11:20:24;100959.06;;;2.18;75.97
38466;BME280;24244;51.950;5.902;2022-11-20T11:22:54;100951.78;;;2.22;75.90
38466;BME280;24244;51.950;5.902;2022-11-20T11:25:26;100934.13;;;2.24;75.72
38466;BME280;24244;51.950;5.902;2022-11-20T11:27:57;100934.84;;;2.26;76.03
38466;BME280;24244;51.950;5.902;2022-11-20T11:30:29;100932.66;;;2.31;75.87
38466;BME280;24244;51.950;5.902;2022-11-20T11:33:06;100922.59;;;2.36;76.02
38466;BME280;24244;51.950;5.902;2022-11-20T11:35:44;100930.94;;;2.41;76.17
38466;BME280;24244;51.950;5.902;2022-11-20T11:38:21;100918.25;;;2.46;75.94
38466;BME280;24244;51.950;5.902;2022-11-20T11:40:48;100912.59;;;2.51;76.04
38466;BME280;24244;51.950;5.902;2022-11-20T11:45:06;100901.56;;;2.57;76.03
38466;BME280;24244;51.950;5.902;2022-11-20T11:47:37;100898.59;;;2.61;76.33
38466;BME280;24244;51.950;5.902;2022-11-20T11:50:16;100887.69;;;2.66;76.17
38466;BME280;24244;51.950;5.902;2022-11-20T11:52:49;100890.88;;;2.69;76.42
38466;BME280;24244;51.950;5.902;2022-11-20T11:55:24;100889.66;;;2.73;76.50
38466;BME280;24244;51.950;5.902;2022-11-20T11:57:57;100884.13;;;2.77;75.94
38466;BME280;24244;51.950;5.902;2022-11-20T12:00:27;100890.78;;;2.81;76.31
38466;BME280;24244;51.950;5.902;2022-11-20T12:03:02;100882.66;;;2.84;76.31
38466;BME280;24244;51.950;5.902;2022-11-20T12:05:37;100878.91;;;2.86;76.42
38466;BME280;24244;51.950;5.902;2022-11-20T12:08:14;100867.56;;;2.86;76.45
38466;BME280;24244;51.950;5.902;2022-11-20T12:10:45;100876.97;;;2.88;76.50
38466;BME280;24244;51.950;5.902;2022-11-20T12:13:25;100874.09;;;2.91;76.79
38466;BME280;24244;51.950;5.902;2022-11-20T12:15:54;100873.81;;;2.94;76.97
38466;BME280;24244;51.950;5.902;2022-11-20T12:18:22;100863.19;;;2.96;76.73
38466;BME280;24244;51.950;5.902;2022-11-20T12:21:00;100858.47;;;2.99;76.88
38466;BME280;24244;51.950;5.902;2022-11-20T12:23:42;100849.66;;;3.00;76.79
38466;BME280;24244;51.950;5.902;2022-11-20T12:26:19;100831.13;;;3.02;77.18
38466;BME280;24244;51.950;5.902;2022-11-20T12:29:02;100835.13;;;3.06;77.13
38466;BME280;24244;51.950;5.902;2022-11-20T12:31:51;100830.59;;;3.08;76.79
38466;BME280;24244;51.950;5.902;2022-11-20T12:34:34;100830.47;;;3.09;77.22
38466;BME280;24244;51.950;5.902;2022-11-20T12:37:14;100826.03;;;3.10;77.48
38466;BME280;24244;51.950;5.902;2022-11-20T12:39:47;100819.53;;;3.14;77.80
38466;BME280;24244;51.950;5.902;2022-11-20T12:42:37;100817.34;;;3.19;77.15
38466;BME280;24244;51.950;5.902;2022-11-20T12:45:54;100810.13;;;3.21;77.28
38466;BME280;24244;51.950;5.902;2022-11-20T12:48:41;100804.63;;;3.24;77.05
38466;BME280;24244;51.950;5.902;2022-11-20T12:51:27;100806.00;;;3.28;77.17
38466;BME280;24244;51.950;5.902;2022-11-20T12:54:11;100794.81;;;3.26;76.97
38466;BME280;24244;51.950;5.902;2022-11-20T12:56:50;100793.56;;;3.30;77.69
38466;BME280;24244;51.950;5.902;2022-11-20T12:59:34;100793.28;;;3.33;77.34
38466;BME280;24244;51.950;5.902;2022-11-20T13:02:18;100786.09;;;3.35;77.30
38466;BME280;24244;51.950;5.902;2022-11-20T13:05:03;100786.91;;;3.36;77.64
38466;BME280;24244;51.950;5.902;2022-11-20T13:07:35;100788.44;;;3.38;77.62
38466;BME280;24244;51.950;5.902;2022-11-20T13:10:04;100792.59;;;3.41;77.38
38466;BME280;24244;51.950;5.902;2022-11-20T13:12:44;100794.09;;;3.43;77.40
38466;BME280;24244;51.950;5.902;2022-11-20T13:15:21;100785.13;;;3.46;77.35
38466;BME280;24244;51.950;5.902;2022-11-20T13:17:54;100775.31;;;3.48;77.77
38466;BME280;24244;51.950;5.902;2022-11-20T13:20:24;100753.47;;;3.47;77.76
38466;BME280;24244;51.950;5.902;2022-11-20T13:22:52;100747.50;;;3.45;77.87